sensor_id;sensor_type;location;lat;lon;timestamp;noise_LAeq;noise_LA_min;noise_LA_max;noise_LA01;noise_LA95
66747;Laerm;53658;50.742;10.864;2023-09-18T00:01:58;37.12;30.89;40.03;;
66747;Laerm;53658;50.742;10.864;2023-09-18T00:04:24;37.24;30.89;40.33;;
66747;Laerm;53658;50.742;10.864;2023-09-18T00:06:50;37.39;32.35;40.53;;
66747;Laerm;53658;50.742;10.864;2023-09-18T00:09:16;37.59;31.68;46.78;;
66747;Laerm;53658;50.742;10.864;2023-09-18T00:11:42;37.59;31.68;41.38;;
66747;Laerm;53658;50.742;10.864;2023-09-18T00:14:08;37.46;29.92;45.01;;
66747;Laerm;53658;50.742;10.864;2023-09-18T00:16:35;37.51;30.89;41.30;;
66747;Laerm;53658;50.742;10.864;2023-09-18T00:19:01;37.39;31.68;40.80;;
66747;Laerm;53658;50.742;10.864;2023-09-18T00:21:28;37.81;32.93;55.27;;
66747;Laerm;53658;50.742;10.864;2023-09-18T00:23:56;37.23;29.92;40.13;;
66747;Laerm;53658;50.742;10.864;2023-09-18T00:26:24;37.21;26.91;40.23;;
66747;Laerm;53658;50.742;10.864;2023-09-18T00:28:52;37.08;30.89;40.13;;
66747;Laerm;53658;50.742;10.864;2023-09-18T00:31:19;37.05;29.92;40.53;;
66747;Laerm;53658;50.742;10.864;2023-09-18T00:33:45;37.00;30.89;40.33;;
66747;Laerm;53658;50.742;10.864;2023-09-18T00:36:11;37.15;29.92;55.11;;
66747;Laerm;53658;50.742;10.864;2023-09-18T00:38:37;37.09;30.89;40.33;;
66747;Laerm;53658;50.742;10.864;2023-09-18T00:41:02;37.14;28.67;43.90;;
66747;Laerm;53658;50.742;10.864;2023-09-18T00:43:28;37.13;30.89;40.62;;
66747;Laerm;53658;50.742;10.864;2023-09-18T00:45:54;37.14;29.92;41.82;;
66747;Laerm;53658;50.742;10.864;2023-09-18T00:48:20;37.13;30.89;40.53;;
66747;Laerm;53658;50.742;10.864;2023-09-18T00:50:48;37.04;31.33;40.13;;
66747;Laerm;53658;50.742;10.864;2023-09-18T00:53:20;38.92;23.90;70.49;;
66747;Laerm;53658;50.742;10.864;2023-09-18T00:55:50;37.29;30.89;43.99;;
66747;Laerm;53658;50.742;10.864;2023-09-18T00:58:19;37.11;30.89;40.23;;
66747;Laerm;53658;50.742;10.864;2023-09-18T01:00:45;37.02;28.67;40.43;;
66747;Laerm;53658;50.742;10.864;2023-09-18T01:03:11;37.02;26.91;40.23;;
66747;Laerm;53658;50.742;10.864;2023-09-18T01:05:38;36.97;29.92;40.33;;
66747;Laerm;53658;50.742;10.864;2023-09-18T01:08:04;36.91;29.92;40.13;;
66747;Laerm;53658;50.742;10.864;2023-09-18T01:10:39;36.91;30.89;40.27;;
66747;Laerm;53658;50.742;10.864;2023-09-18T01:13:12;36.99;28.67;40.13;;
66747;Laerm;53658;50.742;10.864;2023-09-18T01:15:50;36.98;29.92;40.13;;
66747;Laerm;53658;50.742;10.864;2023-09-18T01:18:17;36.93;29.57;40.13;;
66747;Laerm;53658;50.742;10.864;2023-09-18T01:20:44;36.89;28.67;42.53;;
66747;Laerm;53658;50.742;10.864;2023-09-18T01:23:11;36.83;29.92;40.03;;
66747;Laerm;53658;50.742;10.864;2023-09-18T01:25:37;37.12;30.89;52.11;;
66747;Laerm;53658;50.742;10.864;2023-09-18T01:28:03;37.05;29.92;40.13;;
66747;Laerm;53658;50.742;10.864;2023-09-18T01:30:29;36.86;28.67;40.33;;
66747;Laerm;53658;50.742;10.864;2023-09-18T01:32:59;36.87;28.67;39.92;;
66747;Laerm;53658;50.742;10.864;2023-09-18T01:35:26;36.86;28.67;39.70;;
66747;Laerm;53658;50.742;10.864;2023-09-18T01:37:57;36.85;28.67;43.68;;
66747;Laerm;53658;50.742;10.864;2023-09-18T01:40:26;36.88;30.89;43.44;;
66747;Laerm;53658;50.742;10.864;2023-09-18T01:42:53;36.82;29.92;40.33;;
66747;Laerm;53658;50.742;10.864;2023-09-18T01:45:19;36.93;28.67;40.23;;
66747;Laerm;53658;50.742;10.864;2023-09-18T01:47:46;36.75;29.92;39.70;;
66747;Laerm;53658;50.742;10.864;2023-09-18T01:50:11;36.92;28.67;40.71;;
66747;Laerm;53658;50.742;10.864;2023-09-18T01:52:38;36.87;29.92;40.03;;
66747;Laerm;53658;50.742;10.864;2023-09-18T01:55:05;36.76;28.67;40.53;;
66747;Laerm;53658;50.742;10.864;2023-09-18T01:57:32;36.83;28.67;39.92;;
66747;Laerm;53658;50.742;10.864;2023-09-18T01:59:57;36.71;28.67;40.23;;
66747;Laerm;53658;50.742;10.864;2023-09-18T02:02:23;36.80;30.89;39.92;;
66747;Laerm;53658;50.742;10.864;2023-09-18T02:04:49;36.84;29.92;40.71;;
66747;Laerm;53658;50.742;10.864;2023-09-18T02:07:15;36.79;28.67;39.92;;
66747;Laerm;53658;50.742;10.864;2023-09-18T02:09:42;36.76;30.89;39.92;;
66747;Laerm;53658;50.742;10.864;2023-09-18T02:12:07;36.70;29.92;40.43;;
66747;Laerm;53658;50.742;10.864;2023-09-18T02:14:33;36.66;28.67;39.46;;
66747;Laerm;53658;50.742;10.864;2023-09-18T02:17:00;36.71;29.57;40.13;;
66747;Laerm;53658;50.742;10.864;2023-09-18T02:19:25;37.35;29.92;64.88;;
66747;Laerm;53658;50.742;10.864;2023-09-18T02:21:52;36.72;28.67;39.70;;
66747;Laerm;53658;50.742;10.864;2023-09-18T02:24:18;36.79;28.67;40.03;;
66747;Laerm;53658;50.742;10.864;2023-09-18T02:26:44;36.75;29.92;39.92;;
66747;Laerm;53658;50.742;10.864;2023-09-18T02:29:11;36.75;26.91;39.92;;
66747;Laerm;53658;50.742;10.864;2023-09-18T02:31:39;36.75;29.92;40.03;;
66747;Laerm;53658;50.742;10.864;2023-09-18T02:34:05;36.67;29.92;41.14;;
66747;Laerm;53658;50.742;10.864;2023-09-18T02:36:33;36.70;29.92;40.89;;
66747;Laerm;53658;50.742;10.864;2023-09-18T02:38:59;36.83;29.57;40.80;;
66747;Laerm;53658;50.742;10.864;2023-09-18T02:41:25;36.74;26.91;40.13;;
66747;Laerm;53658;50.742;10.864;2023-09-18T02:43:51;36.69;29.92;40.23;;
66747;Laerm;53658;50.742;10.864;2023-09-18T02:46:17;36.67;29.92;39.92;;
66747;Laerm;53658;50.742;10.864;2023-09-18T02:48:42;48.39;29.92;84.24;;
66747;Laerm;53658;50.742;10.864;2023-09-18T02:51:08;37.11;26.91;60.12;;
66747;Laerm;53658;50.742;10.864;2023-09-18T02:53:34;36.92;29.92;51.66;;
66747;Laerm;53658;50.742;10.864;2023-09-18T02:56:00;36.87;26.91;40.13;;
66747;Laerm;53658;50.742;10.864;2023-09-18T02:58:27;36.88;28.67;40.33;;
66747;Laerm;53658;50.742;10.864;2023-09-18T03:00:56;36.88;28.67;40.03;;
66747;Laerm;53658;50.742;10.864;2023-09-18T03:03:25;38.23;29.92;68.97;;
66747;Laerm;53658;50.742;10.864;2023-09-18T03:05:52;36.68;28.67;39.92;;
66747;Laerm;53658;50.742;10.864;2023-09-18T03:08:17;36.67;28.67;40.03;;
66747;Laerm;53658;50.742;10.864;2023-09-18T03:10:44;36.73;29.92;40.98;;
66747;Laerm;53658;50.742;10.864;2023-09-18T03:13:13;36.67;28.67;43.09;;
66747;Laerm;53658;50.742;10.864;2023-09-18T03:15:39;36.72;28.67;39.92;;
66747;Laerm;53658;50.742;10.864;2023-09-18T03:18:06;36.81;29.92;43.99;;
66747;Laerm;53658;50.742;10.864;2023-09-18T03:20:33;36.71;28.67;40.23;;
66747;Laerm;53658;50.742;10.864;2023-09-18T03:23:01;36.74;29.92;40.80;;
66747;Laerm;53658;50.742;10.864;2023-09-18T03:25:28;36.78;29.92;40.98;;
66747;Laerm;53658;50.742;10.864;2023-09-18T03:27:56;36.73;23.90;40.53;;
66747;Laerm;53658;50.742;10.864;2023-09-18T03:30:27;37.15;30.89;41.22;;
66747;Laerm;53658;50.742;10.864;2023-09-18T03:32:53;36.76;28.67;40.33;;
66747;Laerm;53658;50.742;10.864;2023-09-18T03:35:20;36.77;29.92;40.13;;
66747;Laerm;53658;50.742;10.864;2023-09-18T03:37:49;36.84;28.67;40.53;;
66747;Laerm;53658;50.742;10.864;2023-09-18T03:40:17;36.83;29.92;41.14;;
66747;Laerm;53658;50.742;10.864;2023-09-18T03:42:43;36.74;29.92;40.89;;
66747;Laerm;53658;50.742;10.864;2023-09-18T03:45:10;36.65;28.67;39.58;;
66747;Laerm;53658;50.742;10.864;2023-09-18T03:47:38;36.69;28.67;42.65;;
66747;Laerm;53658;50.742;10.864;2023-09-18T03:50:06;36.74;29.92;43.39;;
66747;Laerm;53658;50.742;10.864;2023-09-18T03:52:33;36.69;26.91;39.58;;
66747;Laerm;53658;50.742;10.864;2023-09-18T03:54:59;36.69;29.92;39.81;;
66747;Laerm;53658;50.742;10.864;2023-09-18T03:57:25;36.66;26.91;39.81;;
66747;Laerm;53658;50.742;10.864;2023-09-18T03:59:51;36.77;28.67;39.70;;
66747;Laerm;53658;50.742;10.864;2023-09-18T04:02:17;36.71;28.67;40.03;;
66747;Laerm;53658;50.742;10.864;2023-09-18T04:04:43;36.68;28.67;39.70;;
66747;Laerm;53658;50.742;10.864;2023-09-18T04:07:09;36.71;26.91;39.81;;
66747;Laerm;53658;50.742;10.864;2023-09-18T04:09:35;36.65;29.92;39.92;;
66747;Laerm;53658;50.742;10.864;2023-09-18T04:12:02;37.13;26.91;63.18;;
66747;Laerm;53658;50.742;10.864;2023-09-18T04:14:31;36.70;29.92;39.70;;
66747;Laerm;53658;50.742;10.864;2023-09-18T04:16:57;36.68;28.67;39.92;;
66747;Laerm;53658;50.742;10.864;2023-09-18T04:19:23;36.66;29.92;39.92;;
66747;Laerm;53658;50.742;10.864;2023-09-18T04:21:49;36.68;28.67;39.70;;
66747;Laerm;53658;50.742;10.864;2023-09-18T04:24:15;36.78;26.91;39.92;;
66747;Laerm;53658;50.742;10.864;2023-09-18T04:26:41;36.70;29.92;39.81;;
66747;Laerm;53658;50.742;10.864;2023-09-18T04:29:07;36.73;28.67;40.13;;
66747;Laerm;53658;50.742;10.864;2023-09-18T04:31:33;36.68;28.67;40.62;;
66747;Laerm;53658;50.742;10.864;2023-09-18T04:33:59;36.59;28.67;40.03;;
66747;Laerm;53658;50.742;10.864;2023-09-18T04:36:25;36.65;28.67;43.24;;
66747;Laerm;53658;50.742;10.864;2023-09-18T04:38:52;36.62;29.92;42.98;;
66747;Laerm;53658;50.742;10.864;2023-09-18T04:41:17;36.66;29.92;40.13;;
66747;Laerm;53658;50.742;10.864;2023-09-18T04:43:44;36.70;28.67;39.92;;
66747;Laerm;53658;50.742;10.864;2023-09-18T04:46:10;36.69;23.90;39.70;;
66747;Laerm;53658;50.742;10.864;2023-09-18T04:48:36;36.72;29.92;39.92;;
66747;Laerm;53658;50.742;10.864;2023-09-18T04:51:04;36.80;30.89;40.13;;
66747;Laerm;53658;50.742;10.864;2023-09-18T04:53:31;36.83;28.67;39.58;;
66747;Laerm;53658;50.742;10.864;2023-09-18T04:55:58;36.76;30.89;40.03;;
66747;Laerm;53658;50.742;10.864;2023-09-18T04:58:26;36.72;30.89;39.81;;
66747;Laerm;53658;50.742;10.864;2023-09-18T05:00:56;36.82;26.91;40.13;;
66747;Laerm;53658;50.742;10.864;2023-09-18T05:03:22;36.83;29.92;40.33;;
66747;Laerm;53658;50.742;10.864;2023-09-18T05:05:49;36.80;29.92;40.03;;
66747;Laerm;53658;50.742;10.864;2023-09-18T05:08:16;36.88;30.89;41.61;;
66747;Laerm;53658;50.742;10.864;2023-09-18T05:10:42;37.32;30.89;41.61;;
66747;Laerm;53658;50.742;10.864;2023-09-18T05:13:11;37.63;31.68;41.46;;
66747;Laerm;53658;50.742;10.864;2023-09-18T05:15:37;38.23;34.31;42.35;;
66747;Laerm;53658;50.742;10.864;2023-09-18T05:18:04;38.69;33.90;45.17;;
66747;Laerm;53658;50.742;10.864;2023-09-18T05:20:31;38.87;33.90;42.35;;
66747;Laerm;53658;50.742;10.864;2023-09-18T05:22:58;38.47;35.36;42.59;;
66747;Laerm;53658;50.742;10.864;2023-09-18T05:25:27;38.70;35.36;41.14;;
66747;Laerm;53658;50.742;10.864;2023-09-18T05:27:57;38.83;35.66;45.42;;
66747;Laerm;53658;50.742;10.864;2023-09-18T05:30:30;38.90;35.36;43.72;;
66747;Laerm;53658;50.742;10.864;2023-09-18T05:32:59;38.86;35.04;44.43;;
66747;Laerm;53658;50.742;10.864;2023-09-18T05:35:32;38.78;35.36;47.61;;
66747;Laerm;53658;50.742;10.864;2023-09-18T05:37:58;38.70;35.94;41.61;;
66747;Laerm;53658;50.742;10.864;2023-09-18T05:40:25;38.66;35.66;40.80;;
66747;Laerm;53658;50.742;10.864;2023-09-18T05:42:54;38.75;35.59;41.06;;
66747;Laerm;53658;50.742;10.864;2023-09-18T05:45:20;38.85;35.04;41.53;;
66747;Laerm;53658;50.742;10.864;2023-09-18T05:47:48;38.86;35.66;45.83;;
66747;Laerm;53658;50.742;10.864;2023-09-18T05:50:14;38.74;35.04;45.72;;
66747;Laerm;53658;50.742;10.864;2023-09-18T05:52:43;38.76;35.66;42.41;;
66747;Laerm;53658;50.742;10.864;2023-09-18T05:55:09;38.83;35.66;43.44;;
66747;Laerm;53658;50.742;10.864;2023-09-18T05:57:35;38.80;35.66;41.46;;
66747;Laerm;53658;50.742;10.864;2023-09-18T06:00:02;38.83;35.94;45.75;;
66747;Laerm;53658;50.742;10.864;2023-09-18T06:02:38;38.78;35.04;49.03;;
66747;Laerm;53658;50.742;10.864;2023-09-18T06:05:04;38.81;34.69;43.19;;
66747;Laerm;53658;50.742;10.864;2023-09-18T06:07:31;38.83;35.66;44.83;;
66747;Laerm;53658;50.742;10.864;2023-09-18T06:09:58;38.79;35.66;41.14;;
66747;Laerm;53658;50.742;10.864;2023-09-18T06:12:24;38.88;35.66;44.39;;
66747;Laerm;53658;50.742;10.864;2023-09-18T06:14:52;38.86;35.86;48.45;;
66747;Laerm;53658;50.742;10.864;2023-09-18T06:17:18;38.85;35.94;41.53;;
66747;Laerm;53658;50.742;10.864;2023-09-18T06:19:45;38.88;35.66;41.46;;
66747;Laerm;53658;50.742;10.864;2023-09-18T06:22:12;38.80;35.66;42.35;;
66747;Laerm;53658;50.742;10.864;2023-09-18T06:24:38;38.73;35.66;41.22;;
66747;Laerm;53658;50.742;10.864;2023-09-18T06:27:04;38.72;35.66;41.22;;
66747;Laerm;53658;50.742;10.864;2023-09-18T06:29:31;38.71;35.94;40.80;;
66747;Laerm;53658;50.742;10.864;2023-09-18T06:31:57;38.74;35.94;40.89;;
66747;Laerm;53658;50.742;10.864;2023-09-18T06:34:23;38.73;35.36;42.03;;
66747;Laerm;53658;50.742;10.864;2023-09-18T06:36:49;38.76;35.66;41.14;;
66747;Laerm;53658;50.742;10.864;2023-09-18T06:39:15;38.74;35.04;41.96;;
66747;Laerm;53658;50.742;10.864;2023-09-18T06:41:40;38.78;35.66;41.06;;
66747;Laerm;53658;50.742;10.864;2023-09-18T06:44:06;38.85;35.94;41.22;;
66747;Laerm;53658;50.742;10.864;2023-09-18T06:46:32;38.85;35.66;41.61;;
66747;Laerm;53658;50.742;10.864;2023-09-18T06:48:59;38.82;35.66;43.54;;
66747;Laerm;53658;50.742;10.864;2023-09-18T06:51:27;38.75;35.66;41.75;;
66747;Laerm;53658;50.742;10.864;2023-09-18T06:53:56;38.79;35.94;41.46;;
66747;Laerm;53658;50.742;10.864;2023-09-18T06:56:26;38.84;35.66;41.14;;
66747;Laerm;53658;50.742;10.864;2023-09-18T06:58:52;38.79;36.10;40.71;;
66747;Laerm;53658;50.742;10.864;2023-09-18T07:01:18;38.84;35.94;40.98;;
66747;Laerm;53658;50.742;10.864;2023-09-18T07:03:46;38.90;35.94;40.89;;
66747;Laerm;53658;50.742;10.864;2023-09-18T07:06:14;38.90;36.45;40.89;;
66747;Laerm;53658;50.742;10.864;2023-09-18T07:08:44;38.90;36.20;40.98;;
66747;Laerm;53658;50.742;10.864;2023-09-18T07:11:10;38.94;36.10;40.96;;
66747;Laerm;53658;50.742;10.864;2023-09-18T07:13:38;38.87;36.20;41.06;;
66747;Laerm;53658;50.742;10.864;2023-09-18T07:16:05;38.77;35.94;41.38;;
66747;Laerm;53658;50.742;10.864;2023-09-18T07:18:31;38.74;35.94;41.38;;
66747;Laerm;53658;50.742;10.864;2023-09-18T07:20:57;38.70;35.66;40.62;;
66747;Laerm;53658;50.742;10.864;2023-09-18T07:23:23;38.71;35.66;40.89;;
66747;Laerm;53658;50.742;10.864;2023-09-18T07:25:48;38.70;35.86;40.80;;
66747;Laerm;53658;50.742;10.864;2023-09-18T07:28:14;38.73;36.20;40.89;;
66747;Laerm;53658;50.742;10.864;2023-09-18T07:30:43;38.75;35.66;41.06;;
66747;Laerm;53658;50.742;10.864;2023-09-18T07:33:10;38.77;35.94;40.98;;
66747;Laerm;53658;50.742;10.864;2023-09-18T07:35:37;38.80;35.66;40.89;;
66747;Laerm;53658;50.742;10.864;2023-09-18T07:38:04;38.78;36.20;40.80;;
66747;Laerm;53658;50.742;10.864;2023-09-18T07:40:30;38.80;36.20;41.06;;
66747;Laerm;53658;50.742;10.864;2023-09-18T07:42:56;38.79;36.20;41.96;;
66747;Laerm;53658;50.742;10.864;2023-09-18T07:45:23;38.80;36.20;41.30;;
66747;Laerm;53658;50.742;10.864;2023-09-18T07:47:49;38.83;35.94;41.22;;
66747;Laerm;53658;50.742;10.864;2023-09-18T07:50:15;38.97;36.20;41.14;;
66747;Laerm;53658;50.742;10.864;2023-09-18T07:52:42;39.01;36.45;41.06;;
66747;Laerm;53658;50.742;10.864;2023-09-18T07:55:08;38.93;36.56;40.98;;
66747;Laerm;53658;50.742;10.864;2023-09-18T07:57:35;38.86;35.94;41.06;;
66747;Laerm;53658;50.742;10.864;2023-09-18T08:00:06;38.83;35.94;41.30;;
66747;Laerm;53658;50.742;10.864;2023-09-18T08:02:40;38.83;36.10;40.80;;
66747;Laerm;53658;50.742;10.864;2023-09-18T08:05:06;38.85;35.94;41.38;;
66747;Laerm;53658;50.742;10.864;2023-09-18T08:07:37;38.84;35.66;40.98;;
66747;Laerm;53658;50.742;10.864;2023-09-18T08:10:04;38.89;36.20;40.89;;
66747;Laerm;53658;50.742;10.864;2023-09-18T08:12:32;38.87;35.36;40.89;;
66747;Laerm;53658;50.742;10.864;2023-09-18T08:14:58;38.88;36.20;41.22;;
66747;Laerm;53658;50.742;10.864;2023-09-18T08:17:25;38.97;36.45;41.06;;
66747;Laerm;53658;50.742;10.864;2023-09-18T08:19:52;39.03;36.69;40.98;;
66747;Laerm;53658;50.742;10.864;2023-09-18T08:22:19;38.99;36.69;41.22;;
66747;Laerm;53658;50.742;10.864;2023-09-18T08:24:47;39.27;36.69;41.75;;
66747;Laerm;53658;50.742;10.864;2023-09-18T08:27:14;40.03;37.70;41.82;;
66747;Laerm;53658;50.742;10.864;2023-09-18T08:29:45;40.39;38.37;42.03;;
66747;Laerm;53658;50.742;10.864;2023-09-18T08:32:11;40.54;38.81;42.03;;
66747;Laerm;53658;50.742;10.864;2023-09-18T08:34:37;40.78;38.95;42.09;;
66747;Laerm;53658;50.742;10.864;2023-09-18T08:37:03;40.84;39.08;42.59;;
66747;Laerm;53658;50.742;10.864;2023-09-18T08:39:30;40.81;39.08;42.35;;
66747;Laerm;53658;50.742;10.864;2023-09-18T08:42:03;40.75;38.95;42.47;;
66747;Laerm;53658;50.742;10.864;2023-09-18T08:44:30;40.68;38.67;42.29;;
66747;Laerm;53658;50.742;10.864;2023-09-18T08:46:57;40.67;39.08;42.09;;
66747;Laerm;53658;50.742;10.864;2023-09-18T08:49:24;40.64;38.67;42.13;;
66747;Laerm;53658;50.742;10.864;2023-09-18T08:51:51;40.65;38.52;43.90;;
66747;Laerm;53658;50.742;10.864;2023-09-18T08:54:21;40.55;38.81;43.24;;
66747;Laerm;53658;50.742;10.864;2023-09-18T08:56:47;40.56;38.67;45.66;;
66747;Laerm;53658;50.742;10.864;2023-09-18T08:59:13;40.61;38.52;49.25;;
66747;Laerm;53658;50.742;10.864;2023-09-18T09:01:40;40.49;38.81;42.47;;
66747;Laerm;53658;50.742;10.864;2023-09-18T09:04:06;40.56;38.67;42.16;;
66747;Laerm;53658;50.742;10.864;2023-09-18T09:06:32;40.53;38.37;42.09;;
66747;Laerm;53658;50.742;10.864;2023-09-18T09:08:58;40.87;38.67;53.99;;
66747;Laerm;53658;50.742;10.864;2023-09-18T09:11:24;40.53;38.95;42.98;;
66747;Laerm;53658;50.742;10.864;2023-09-18T09:14:22;40.52;38.52;42.03;;
66747;Laerm;53658;50.742;10.864;2023-09-18T09:16:55;40.56;38.52;42.22;;
66747;Laerm;53658;50.742;10.864;2023-09-18T09:19:34;40.53;38.95;42.35;;
66747;Laerm;53658;50.742;10.864;2023-09-18T09:22:04;40.52;38.81;45.04;;
66747;Laerm;53658;50.742;10.864;2023-09-18T09:24:40;40.50;38.52;43.29;;
66747;Laerm;53658;50.742;10.864;2023-09-18T09:27:06;40.53;38.67;42.47;;
66747;Laerm;53658;50.742;10.864;2023-09-18T09:29:32;40.54;38.95;43.44;;
66747;Laerm;53658;50.742;10.864;2023-09-18T09:32:16;40.55;38.52;42.53;;
66747;Laerm;53658;50.742;10.864;2023-09-18T09:34:44;40.51;38.67;42.09;;
66747;Laerm;53658;50.742;10.864;2023-09-18T09:37:12;40.36;38.52;41.96;;
66747;Laerm;53658;50.742;10.864;2023-09-18T09:39:49;40.40;38.67;42.71;;
66747;Laerm;53658;50.742;10.864;2023-09-18T09:42:20;40.36;38.37;41.75;;
66747;Laerm;53658;50.742;10.864;2023-09-18T09:45:09;40.29;38.52;41.96;;
66747;Laerm;53658;50.742;10.864;2023-09-18T09:47:37;40.24;38.21;42.88;;
66747;Laerm;53658;50.742;10.864;2023-09-18T09:52:36;40.50;38.67;45.91;;
66747;Laerm;53658;50.742;10.864;2023-09-18T09:55:03;40.23;38.21;43.49;;
66747;Laerm;53658;50.742;10.864;2023-09-18T09:57:46;40.19;37.52;42.09;;
66747;Laerm;53658;50.742;10.864;2023-09-18T10:00:14;40.21;38.37;44.03;;
66747;Laerm;53658;50.742;10.864;2023-09-18T10:03:04;40.20;38.47;45.45;;
66747;Laerm;53658;50.742;10.864;2023-09-18T10:05:35;40.34;37.70;48.00;;
66747;Laerm;53658;50.742;10.864;2023-09-18T10:10:38;40.05;38.21;42.82;;
66747;Laerm;53658;50.742;10.864;2023-09-18T10:16:01;40.11;38.21;48.20;;
66747;Laerm;53658;50.742;10.864;2023-09-18T10:19:06;40.04;37.88;42.82;;
66747;Laerm;53658;50.742;10.864;2023-09-18T10:21:45;40.05;38.05;41.61;;
66747;Laerm;53658;50.742;10.864;2023-09-18T10:24:26;40.00;38.02;41.68;;
66747;Laerm;53658;50.742;10.864;2023-09-18T10:27:01;39.88;38.05;41.53;;
66747;Laerm;53658;50.742;10.864;2023-09-18T10:29:32;40.00;37.88;41.53;;
66747;Laerm;53658;50.742;10.864;2023-09-18T10:31:58;40.05;38.05;41.53;;
66747;Laerm;53658;50.742;10.864;2023-09-18T10:34:25;40.07;38.37;41.68;;
66747;Laerm;53658;50.742;10.864;2023-09-18T10:36:53;39.90;37.70;41.48;;
66747;Laerm;53658;50.742;10.864;2023-09-18T10:39:20;39.97;38.21;42.35;;
66747;Laerm;53658;50.742;10.864;2023-09-18T10:41:53;39.86;37.70;41.38;;
66747;Laerm;53658;50.742;10.864;2023-09-18T10:44:20;39.76;37.70;41.38;;
66747;Laerm;53658;50.742;10.864;2023-09-18T10:46:47;39.79;37.52;41.30;;
66747;Laerm;53658;50.742;10.864;2023-09-18T10:49:15;39.76;38.05;41.61;;
66747;Laerm;53658;50.742;10.864;2023-09-18T10:51:42;39.69;37.32;41.46;;
66747;Laerm;53658;50.742;10.864;2023-09-18T10:54:10;39.65;37.70;41.38;;
66747;Laerm;53658;50.742;10.864;2023-09-18T10:56:37;39.61;37.53;41.14;;
66747;Laerm;53658;50.742;10.864;2023-09-18T10:59:07;39.58;37.52;41.46;;
66747;Laerm;53658;50.742;10.864;2023-09-18T11:01:35;39.48;37.12;42.16;;
66747;Laerm;53658;50.742;10.864;2023-09-18T11:04:04;39.47;37.52;41.22;;
66747;Laerm;53658;50.742;10.864;2023-09-18T11:09:25;39.36;37.12;41.30;;
66747;Laerm;53658;50.742;10.864;2023-09-18T11:12:03;39.31;36.91;40.96;;
66747;Laerm;53658;50.742;10.864;2023-09-18T11:14:45;39.23;37.12;40.98;;
66747;Laerm;53658;50.742;10.864;2023-09-18T11:20:23;39.42;37.12;41.14;;
66747;Laerm;53658;50.742;10.864;2023-09-18T11:23:01;39.87;37.12;44.54;;
66747;Laerm;53658;50.742;10.864;2023-09-18T11:25:42;39.57;37.52;41.68;;
66747;Laerm;53658;50.742;10.864;2023-09-18T11:28:14;39.65;37.70;41.46;;
66747;Laerm;53658;50.742;10.864;2023-09-18T11:30:50;39.59;37.32;41.68;;
66747;Laerm;53658;50.742;10.864;2023-09-18T11:33:34;39.89;37.32;51.09;;
66747;Laerm;53658;50.742;10.864;2023-09-18T11:36:08;39.88;37.52;51.39;;
66747;Laerm;53658;50.742;10.864;2023-09-18T11:38:57;39.98;37.32;52.37;;
66747;Laerm;53658;50.742;10.864;2023-09-18T11:41:27;39.98;36.91;48.46;;
66747;Laerm;53658;50.742;10.864;2023-09-18T11:46:45;39.44;36.69;43.05;;
66747;Laerm;53658;50.742;10.864;2023-09-18T11:49:11;39.71;36.91;46.20;;
66747;Laerm;53658;50.742;10.864;2023-09-18T11:51:42;41.15;36.69;59.01;;
66747;Laerm;53658;50.742;10.864;2023-09-18T11:54:09;39.26;36.91;42.98;;
66747;Laerm;53658;50.742;10.864;2023-09-18T11:56:35;39.02;35.66;45.69;;
66747;Laerm;53658;50.742;10.864;2023-09-18T11:59:01;38.91;36.20;42.22;;
66747;Laerm;53658;50.742;10.864;2023-09-18T12:01:31;38.76;36.20;41.06;;
66747;Laerm;53658;50.742;10.864;2023-09-18T12:04:02;38.93;36.45;42.03;;
66747;Laerm;53658;50.742;10.864;2023-09-18T12:06:35;38.98;36.20;44.23;;
66747;Laerm;53658;50.742;10.864;2023-09-18T12:09:03;38.95;35.94;42.29;;
66747;Laerm;53658;50.742;10.864;2023-09-18T12:11:29;38.85;36.20;41.30;;
66747;Laerm;53658;50.742;10.864;2023-09-18T12:13:55;39.08;35.94;43.24;;
66747;Laerm;53658;50.742;10.864;2023-09-18T12:16:25;39.19;36.20;47.34;;
66747;Laerm;53658;50.742;10.864;2023-09-18T12:18:52;39.02;35.66;43.14;;
66747;Laerm;53658;50.742;10.864;2023-09-18T12:21:18;39.31;36.20;52.30;;
66747;Laerm;53658;50.742;10.864;2023-09-18T12:23:45;39.48;36.20;47.36;;
66747;Laerm;53658;50.742;10.864;2023-09-18T12:26:14;39.08;35.94;47.68;;
66747;Laerm;53658;50.742;10.864;2023-09-18T12:28:42;38.96;35.66;45.23;;
66747;Laerm;53658;50.742;10.864;2023-09-18T12:31:13;38.73;36.20;41.89;;
66747;Laerm;53658;50.742;10.864;2023-09-18T12:33:42;39.11;36.45;48.08;;
66747;Laerm;53658;50.742;10.864;2023-09-18T12:36:10;38.79;35.66;41.68;;
66747;Laerm;53658;50.742;10.864;2023-09-18T12:38:37;38.81;35.94;42.71;;
66747;Laerm;53658;50.742;10.864;2023-09-18T12:41:05;39.31;35.94;46.23;;
66747;Laerm;53658;50.742;10.864;2023-09-18T12:43:40;38.96;36.20;46.20;;
66747;Laerm;53658;50.742;10.864;2023-09-18T12:46:08;39.17;35.66;47.48;;
66747;Laerm;53658;50.742;10.864;2023-09-18T12:48:39;39.11;35.66;43.77;;
66747;Laerm;53658;50.742;10.864;2023-09-18T12:51:11;41.00;35.36;62.23;;
66747;Laerm;53658;50.742;10.864;2023-09-18T12:53:38;39.05;35.36;48.28;;
66747;Laerm;53658;50.742;10.864;2023-09-18T12:56:13;38.73;35.94;40.80;;
66747;Laerm;53658;50.742;10.864;2023-09-18T12:58:41;38.76;35.94;42.93;;
66747;Laerm;53658;50.742;10.864;2023-09-18T13:01:10;38.99;35.94;46.82;;
66747;Laerm;53658;50.742;10.864;2023-09-18T13:03:46;38.90;35.86;45.27;;
66747;Laerm;53658;50.742;10.864;2023-09-18T13:06:17;38.72;35.94;41.06;;
66747;Laerm;53658;50.742;10.864;2023-09-18T13:08:44;38.81;35.86;43.86;;
66747;Laerm;53658;50.742;10.864;2023-09-18T13:11:10;39.14;35.66;44.27;;
66747;Laerm;53658;50.742;10.864;2023-09-18T13:13:37;38.89;35.66;43.09;;
66747;Laerm;53658;50.742;10.864;2023-09-18T13:16:08;38.93;35.66;42.93;;
66747;Laerm;53658;50.742;10.864;2023-09-18T13:18:37;38.83;35.66;40.98;;
66747;Laerm;53658;50.742;10.864;2023-09-18T13:21:11;38.85;36.45;41.22;;
66747;Laerm;53658;50.742;10.864;2023-09-18T13:23:37;39.56;35.36;52.13;;
66747;Laerm;53658;50.742;10.864;2023-09-18T13:26:05;39.16;36.20;43.77;;
66747;Laerm;53658;50.742;10.864;2023-09-18T13:28:32;38.96;36.20;41.53;;
66747;Laerm;53658;50.742;10.864;2023-09-18T13:31:00;39.01;36.20;41.89;;
66747;Laerm;53658;50.742;10.864;2023-09-18T13:33:28;39.06;36.20;45.33;;
66747;Laerm;53658;50.742;10.864;2023-09-18T13:35:54;39.07;36.45;43.34;;
66747;Laerm;53658;50.742;10.864;2023-09-18T13:38:21;39.10;36.69;44.23;;
66747;Laerm;53658;50.742;10.864;2023-09-18T13:40:48;39.07;36.45;42.47;;
66747;Laerm;53658;50.742;10.864;2023-09-18T13:43:14;38.99;36.20;41.14;;
66747;Laerm;53658;50.742;10.864;2023-09-18T13:45:41;39.03;36.45;41.53;;
66747;Laerm;53658;50.742;10.864;2023-09-18T13:48:08;39.12;35.66;42.03;;
66747;Laerm;53658;50.742;10.864;2023-09-18T13:50:35;39.05;36.45;41.06;;
66747;Laerm;53658;50.742;10.864;2023-09-18T13:53:02;39.11;36.45;41.30;;
66747;Laerm;53658;50.742;10.864;2023-09-18T13:55:30;39.14;36.91;41.61;;